createdAt,value
2023-01-09T00:00:53.007Z,-2.90
2023-01-09T00:03:20.006Z,-3.00
2023-01-09T00:05:47.062Z,-2.90
2023-01-09T00:08:13.948Z,-2.90
2023-01-09T00:10:40.839Z,-2.90
2023-01-09T00:13:07.731Z,-2.90
2023-01-09T00:15:34.686Z,-2.90
2023-01-09T00:18:01.581Z,-2.90
2023-01-09T00:20:28.538Z,-2.90
2023-01-09T00:22:55.408Z,-2.90
2023-01-09T00:25:22.985Z,-2.90
2023-01-09T00:27:52.035Z,-2.90
2023-01-09T00:30:19.035Z,-2.90
2023-01-09T00:32:46.423Z,-2.90
2023-01-09T00:35:16.829Z,-2.80
2023-01-09T00:37:43.913Z,-2.80
2023-01-09T00:40:14.559Z,-2.90
2023-01-09T00:42:43.361Z,-2.80
2023-01-09T00:45:16.212Z,-2.80
2023-01-09T00:47:50.262Z,-2.80
2023-01-09T00:50:24.812Z,-2.80
2023-01-09T00:52:55.864Z,-2.80
2023-01-09T00:55:23.512Z,-2.80
2023-01-09T00:57:50.441Z,-2.80
2023-01-09T01:00:18.184Z,-2.80
2023-01-09T01:02:45.575Z,-2.80
2023-01-09T01:05:31.153Z,-2.80
2023-01-09T01:07:58.051Z,-2.80
2023-01-09T01:10:28.160Z,-2.80
2023-01-09T01:12:55.300Z,-2.80
2023-01-09T01:15:22.396Z,-2.80
2023-01-09T01:17:49.387Z,-2.80
2023-01-09T01:20:18.477Z,-2.80
2023-01-09T01:22:45.849Z,-2.80
2023-01-09T01:25:14.113Z,-2.70
2023-01-09T01:27:41.388Z,-2.80
2023-01-09T01:30:10.538Z,-2.80
2023-01-09T01:32:38.153Z,-2.80
2023-01-09T01:35:05.787Z,-2.70
2023-01-09T01:37:34.922Z,-2.80
2023-01-09T01:40:01.961Z,-2.80
2023-01-09T01:42:28.843Z,-2.80
2023-01-09T01:45:06.473Z,-2.80
2023-01-09T01:48:02.729Z,-2.80
2023-01-09T01:50:46.273Z,-2.80
2023-01-09T01:53:23.609Z,-2.70
2023-01-09T01:56:14.781Z,-2.80
2023-01-09T01:58:53.140Z,-2.70
2023-01-09T02:01:22.466Z,-2.80
2023-01-09T02:03:50.843Z,-2.70
2023-01-09T02:06:17.919Z,-2.80
2023-01-09T02:08:47.827Z,-2.70
2023-01-09T02:11:17.135Z,-2.70
2023-01-09T02:13:46.650Z,-2.70
2023-01-09T02:16:31.962Z,-2.70
2023-01-09T02:19:36.187Z,-2.70
2023-01-09T02:22:36.089Z,-2.70
2023-01-09T02:25:41.817Z,-2.70
2023-01-09T02:28:32.285Z,-2.70
2023-01-09T02:31:22.268Z,-2.70
2023-01-09T02:34:22.967Z,-2.70
2023-01-09T02:37:21.468Z,-2.60
2023-01-09T02:40:17.575Z,-2.70
2023-01-09T02:42:45.707Z,-2.70
2023-01-09T02:45:12.667Z,-2.70
2023-01-09T02:47:42.967Z,-2.70
2023-01-09T02:50:17.301Z,-2.70
2023-01-09T02:52:49.762Z,-2.60
2023-01-09T02:56:10.666Z,-2.60
2023-01-09T02:58:55.903Z,-2.60
2023-01-09T03:01:34.573Z,-2.60
2023-01-09T03:04:16.433Z,-2.70
2023-01-09T03:07:01.244Z,-2.70
2023-01-09T03:09:31.942Z,-2.60
2023-01-09T03:12:14.479Z,-2.70
2023-01-09T03:14:46.665Z,-2.60
2023-01-09T03:17:19.171Z,-2.70
2023-01-09T03:19:47.124Z,-2.70
2023-01-09T03:22:14.464Z,-2.70
2023-01-09T03:24:41.470Z,-2.70
2023-01-09T03:27:09.497Z,-2.70
2023-01-09T03:29:37.460Z,-2.70
2023-01-09T03:32:04.500Z,-2.70
2023-01-09T03:34:31.485Z,-2.60
2023-01-09T03:36:58.458Z,-2.70
2023-01-09T03:39:25.421Z,-2.70
2023-01-09T03:41:52.328Z,-2.60
2023-01-09T03:44:19.190Z,-2.60
2023-01-09T03:46:46.116Z,-2.70
2023-01-09T03:49:13.983Z,-2.70
2023-01-09T03:51:40.905Z,-2.70
2023-01-09T03:54:07.880Z,-2.70
2023-01-09T03:56:34.854Z,-2.70
2023-01-09T03:59:01.833Z,-2.60
2023-01-09T04:01:28.828Z,-2.70
2023-01-09T04:03:55.821Z,-2.70
2023-01-09T04:06:22.712Z,-2.70
2023-01-09T04:08:49.581Z,-2.60
2023-01-09T04:11:18.221Z,-2.70
2023-01-09T04:13:45.268Z,-2.70
2023-01-09T04:16:12.187Z,-2.70
2023-01-09T04:18:39.128Z,-2.70
2023-01-09T04:21:06.054Z,-2.70
2023-01-09T04:23:33.012Z,-2.70
2023-01-09T04:25:59.893Z,-2.70
2023-01-09T04:28:26.797Z,-2.70
2023-01-09T04:30:54.919Z,-2.70
2023-01-09T04:33:24.421Z,-2.60
2023-01-09T04:35:51.369Z,-2.70
2023-01-09T04:38:18.415Z,-2.60
2023-01-09T04:40:47.493Z,-2.60
2023-01-09T04:43:14.519Z,-2.60
2023-01-09T04:45:41.396Z,-2.60
2023-01-09T04:48:08.334Z,-2.70
2023-01-09T04:50:35.271Z,-2.60
2023-01-09T04:53:02.150Z,-2.60
2023-01-09T04:55:29.073Z,-2.60
2023-01-09T04:57:55.943Z,-2.60
2023-01-09T05:00:22.946Z,-2.60
2023-01-09T05:02:49.839Z,-2.60
2023-01-09T05:05:16.798Z,-2.60
2023-01-09T05:07:43.655Z,-2.60
2023-01-09T05:10:11.475Z,-2.60
2023-01-09T05:12:39.847Z,-2.60
2023-01-09T05:15:08.076Z,-2.50
2023-01-09T05:17:35.137Z,-2.60
2023-01-09T05:20:02.016Z,-2.60
2023-01-09T05:22:29.053Z,-2.60
2023-01-09T05:24:56.146Z,-2.60
2023-01-09T05:27:23.351Z,-2.60
2023-01-09T05:29:50.208Z,-2.60
2023-01-09T05:32:17.129Z,-2.50
2023-01-09T05:34:44.048Z,-2.50
2023-01-09T05:37:11.014Z,-2.60
2023-01-09T05:39:37.934Z,-2.60
2023-01-09T05:42:05.016Z,-2.50
2023-01-09T05:44:31.901Z,-2.60
2023-01-09T05:46:58.763Z,-2.60
2023-01-09T05:49:25.649Z,-2.50
2023-01-09T05:51:52.490Z,-2.50
2023-01-09T05:54:19.393Z,-2.60
2023-01-09T05:56:46.378Z,-2.50
2023-01-09T05:59:13.290Z,-2.50
2023-01-09T06:01:40.197Z,-2.50
2023-01-09T06:04:07.161Z,-2.50
2023-01-09T06:06:34.061Z,-2.50
2023-01-09T06:09:00.991Z,-2.50
2023-01-09T06:11:27.939Z,-2.50
2023-01-09T06:13:54.872Z,-2.50
2023-01-09T06:16:21.862Z,-2.50
2023-01-09T06:18:48.921Z,-2.50
2023-01-09T06:21:15.798Z,-2.50
2023-01-09T06:23:42.642Z,-2.50
2023-01-09T06:26:09.552Z,-2.50
2023-01-09T06:28:36.787Z,-2.50
2023-01-09T06:31:03.724Z,-2.50
2023-01-09T06:33:30.756Z,-2.50
2023-01-09T06:35:57.758Z,-2.50
2023-01-09T06:38:24.644Z,-2.50
2023-01-09T06:40:51.796Z,-2.50
2023-01-09T06:43:18.728Z,-2.50
2023-01-09T06:45:47.899Z,-2.50
2023-01-09T06:48:14.777Z,-2.40
2023-01-09T06:50:41.768Z,-2.40
2023-01-09T06:53:08.809Z,-2.40
2023-01-09T06:55:35.813Z,-2.40
2023-01-09T06:58:02.900Z,-2.40
2023-01-09T07:00:31.503Z,-2.40
2023-01-09T07:02:58.505Z,-2.40
2023-01-09T07:05:25.446Z,-2.40
2023-01-09T07:07:52.364Z,-2.40
2023-01-09T07:10:19.283Z,-2.40
2023-01-09T07:12:46.773Z,-2.30
2023-01-09T07:15:13.654Z,-2.40
2023-01-09T07:17:42.736Z,-2.30
2023-01-09T07:20:10.402Z,-2.30
2023-01-09T07:22:37.334Z,-2.30
2023-01-09T07:25:04.558Z,-2.30
2023-01-09T07:27:31.474Z,-2.30
2023-01-09T07:29:58.890Z,-2.30
2023-01-09T07:32:25.774Z,-2.20
2023-01-09T07:34:52.892Z,-2.20
2023-01-09T07:37:19.952Z,-2.30
2023-01-09T07:39:46.848Z,-2.20
2023-01-09T07:42:13.850Z,-2.20
2023-01-09T07:44:40.817Z,-2.20
2023-01-09T07:47:07.986Z,-2.20
2023-01-09T07:49:34.897Z,-2.20
2023-01-09T07:52:01.848Z,-2.20
2023-01-09T07:54:28.721Z,-2.10
2023-01-09T07:56:56.218Z,-2.10
2023-01-09T07:59:23.285Z,-2.20
2023-01-09T08:01:50.327Z,-2.10
2023-01-09T08:04:17.358Z,-2.10
2023-01-09T08:06:44.295Z,-2.10
2023-01-09T08:09:11.345Z,-2.10
2023-01-09T08:11:38.218Z,-2.10
2023-01-09T08:14:05.165Z,-2.10
2023-01-09T08:16:32.084Z,-2.10
2023-01-09T08:18:59.050Z,-2.10
2023-01-09T08:21:25.906Z,-2.10
2023-01-09T08:23:52.780Z,-2.10
2023-01-09T08:26:19.831Z,-2.00
2023-01-09T08:28:47.002Z,-2.10
2023-01-09T08:31:14.283Z,-2.10
2023-01-09T08:33:41.308Z,-2.10
2023-01-09T08:36:09.740Z,-2.10
2023-01-09T08:38:36.663Z,-2.00
2023-01-09T08:41:26.845Z,-2.00
2023-01-09T08:44:12.559Z,-2.00
2023-01-09T08:46:58.099Z,-2.00
2023-01-09T08:49:25.025Z,-2.00
2023-01-09T08:51:53.223Z,-2.00
2023-01-09T08:54:20.233Z,-1.90
2023-01-09T08:56:47.324Z,-1.90
2023-01-09T08:59:15.405Z,-1.90
2023-01-09T09:01:42.342Z,-1.90
2023-01-09T09:04:09.376Z,-1.90
2023-01-09T09:06:36.282Z,-1.90
2023-01-09T09:09:04.488Z,-1.90
2023-01-09T09:11:31.545Z,-1.90
2023-01-09T09:13:59.180Z,-1.80
2023-01-09T09:16:27.325Z,-1.80
2023-01-09T09:18:54.288Z,-1.80
2023-01-09T09:21:21.492Z,-1.80
2023-01-09T09:23:48.430Z,-1.80
2023-01-09T09:26:15.293Z,-1.80
2023-01-09T09:28:42.425Z,-1.70
2023-01-09T09:31:09.475Z,-1.70
2023-01-09T09:33:36.574Z,-1.70
2023-01-09T09:36:03.542Z,-1.80
2023-01-09T09:38:30.466Z,-1.70
2023-01-09T09:41:36.225Z,-1.70
2023-01-09T09:44:48.433Z,-1.70
2023-01-09T09:47:43.417Z,-1.70
2023-01-09T09:50:39.870Z,-1.70
2023-01-09T09:53:11.670Z,-1.70
2023-01-09T09:55:40.657Z,-1.70
2023-01-09T09:58:22.314Z,-1.70
2023-01-09T10:00:54.823Z,-1.60
2023-01-09T10:03:41.542Z,-1.70
2023-01-09T10:06:32.280Z,-1.60
2023-01-09T10:09:34.187Z,-1.70
2023-01-09T10:12:35.561Z,-1.60
2023-01-09T10:15:17.635Z,-1.60
2023-01-09T10:18:23.384Z,-1.60
2023-01-09T10:21:12.378Z,-1.60
2023-01-09T10:24:13.397Z,-1.60
2023-01-09T10:26:48.564Z,-1.60
2023-01-09T10:29:26.347Z,-1.60
2023-01-09T10:32:05.199Z,-1.60
2023-01-09T10:34:47.121Z,-1.60
2023-01-09T10:37:31.764Z,-1.50
2023-01-09T10:40:06.685Z,-1.60
2023-01-09T10:42:48.913Z,-1.50
2023-01-09T10:45:50.851Z,-1.50
2023-01-09T10:48:25.001Z,-1.50
2023-01-09T10:50:54.652Z,-1.50
2023-01-09T10:53:26.723Z,-1.50
2023-01-09T10:56:00.022Z,-1.50
2023-01-09T10:58:29.765Z,-1.50
2023-01-09T11:00:58.986Z,-1.60
2023-01-09T11:03:28.425Z,-1.50
2023-01-09T11:05:59.025Z,-1.50
2023-01-09T11:08:43.000Z,-1.50
2023-01-09T11:11:10.887Z,-1.50
2023-01-09T11:13:43.525Z,-1.50
2023-01-09T11:16:16.276Z,-1.50
2023-01-09T11:18:58.795Z,-1.60
2023-01-09T11:21:39.553Z,-1.50
2023-01-09T11:24:21.756Z,-1.50
2023-01-09T11:26:51.941Z,-1.50
2023-01-09T11:29:21.171Z,-1.50
2023-01-09T11:31:56.260Z,-1.50
2023-01-09T11:34:26.231Z,-1.50
2023-01-09T11:36:55.347Z,-1.50
2023-01-09T11:39:26.677Z,-1.50
2023-01-09T11:41:59.942Z,-1.50
2023-01-09T11:44:29.001Z,-1.50
2023-01-09T11:46:56.221Z,-1.40
2023-01-09T11:49:24.695Z,-1.40
2023-01-09T11:52:22.311Z,-1.50
2023-01-09T11:54:52.468Z,-1.40
2023-01-09T11:57:26.000Z,-1.40
2023-01-09T11:59:55.909Z,-1.40
2023-01-09T12:02:37.237Z,-1.40
2023-01-09T12:05:23.976Z,-1.40
2023-01-09T12:07:53.663Z,-1.40
2023-01-09T12:10:38.941Z,-1.40
2023-01-09T12:13:38.271Z,-1.40
2023-01-09T12:16:30.644Z,-1.40
2023-01-09T12:52:15.172Z,-1.40
2023-01-09T12:54:58.731Z,-1.40
2023-01-09T12:57:33.854Z,-1.40
2023-01-09T13:00:15.537Z,-1.40
2023-01-09T13:02:57.549Z,-1.40
2023-01-09T13:05:35.413Z,-1.40
2023-01-09T13:08:37.916Z,-1.40
2023-01-09T13:11:21.174Z,-1.50
2023-01-09T13:14:12.118Z,-1.40
2023-01-09T13:17:00.173Z,-1.40
2023-01-09T13:19:40.394Z,-1.40
2023-01-09T13:22:08.138Z,-1.50
2023-01-09T13:24:37.615Z,-1.50
2023-01-09T13:27:17.493Z,-1.50
2023-01-09T13:29:50.669Z,-1.50
2023-01-09T13:32:57.145Z,-1.50
2023-01-09T13:35:24.397Z,-1.50
2023-01-09T13:37:53.567Z,-1.50
2023-01-09T13:40:20.525Z,-1.50
2023-01-09T13:42:56.251Z,-1.60
2023-01-09T13:45:28.317Z,-1.60
2023-01-09T13:48:11.370Z,-1.60
2023-01-09T13:50:39.356Z,-1.60
2023-01-09T13:53:21.215Z,-1.60
2023-01-09T13:56:03.381Z,-1.60
2023-01-09T13:58:51.008Z,-1.70
2023-01-09T14:01:37.643Z,-1.60
2023-01-09T14:04:10.269Z,-1.70
2023-01-09T14:06:38.557Z,-1.70
2023-01-09T14:09:27.859Z,-1.70
2023-01-09T14:12:06.200Z,-1.70
2023-01-09T14:14:37.490Z,-1.70
2023-01-09T14:17:19.948Z,-1.80
2023-01-09T14:19:47.126Z,-1.80
2023-01-09T14:22:46.169Z,-1.80
2023-01-09T14:25:29.060Z,-1.80
2023-01-09T14:27:56.153Z,-1.80
2023-01-09T14:30:25.777Z,-1.90
2023-01-09T14:33:04.617Z,-1.80
2023-01-09T14:35:38.934Z,-1.80
2023-01-09T14:38:15.711Z,-1.90
2023-01-09T14:40:54.637Z,-1.90
2023-01-09T14:44:08.784Z,-1.90
2023-01-09T14:46:39.100Z,-1.90
2023-01-09T14:49:27.758Z,-1.80
2023-01-09T14:51:59.300Z,-1.90
2023-01-09T14:54:40.403Z,-1.90
2023-01-09T14:57:28.857Z,-1.90
2023-01-09T15:00:18.856Z,-2.00
2023-01-09T15:02:47.368Z,-2.00
2023-01-09T15:05:18.025Z,-2.00
2023-01-09T15:07:55.956Z,-2.00
2023-01-09T15:10:28.176Z,-2.00
2023-01-09T15:12:59.953Z,-2.00
2023-01-09T15:15:27.903Z,-2.00
2023-01-09T15:18:07.862Z,-2.00
2023-01-09T15:20:35.690Z,-2.00
2023-01-09T15:23:04.791Z,-2.00
2023-01-09T15:25:39.252Z,-2.00
2023-01-09T15:28:35.016Z,-2.10
2023-01-09T15:31:16.462Z,-2.10
2023-01-09T15:33:46.020Z,-2.10
2023-01-09T15:36:28.559Z,-2.10
2023-01-09T15:38:55.703Z,-2.10
2023-01-09T15:41:49.160Z,-2.10
2023-01-09T15:44:24.164Z,-2.10
2023-01-09T15:46:52.017Z,-2.10
2023-01-09T15:49:21.035Z,-2.10
2023-01-09T15:51:49.511Z,-2.10
2023-01-09T15:54:33.081Z,-2.10
2023-01-09T15:57:24.977Z,-2.10
2023-01-09T15:59:52.573Z,-2.00
2023-01-09T16:02:39.556Z,-2.10
2023-01-09T16:05:15.539Z,-2.10
2023-01-09T16:07:46.722Z,-2.10
2023-01-09T16:10:26.280Z,-2.10
2023-01-09T16:12:54.815Z,-2.10
2023-01-09T16:15:22.202Z,-2.10
2023-01-09T16:18:28.390Z,-2.20
2023-01-09T16:21:24.379Z,-2.20
2023-01-09T16:23:54.473Z,-2.10
2023-01-09T16:26:26.415Z,-2.10
2023-01-09T16:28:53.944Z,-2.20
2023-01-09T16:31:31.261Z,-2.10
2023-01-09T16:34:06.493Z,-2.10
2023-01-09T16:36:37.044Z,-2.10
2023-01-09T16:39:04.759Z,-2.10
2023-01-09T16:41:50.167Z,-2.20
2023-01-09T16:44:19.575Z,-2.20
2023-01-09T16:46:46.776Z,-2.10
2023-01-09T16:49:23.451Z,-2.20
2023-01-09T16:51:51.415Z,-2.10
2023-01-09T16:54:19.217Z,-2.30
2023-01-09T16:56:50.400Z,-2.20
2023-01-09T16:59:25.005Z,-2.20
2023-01-09T17:01:53.597Z,-2.10
2023-01-09T17:04:20.869Z,-2.20
2023-01-09T17:06:51.486Z,-2.20
2023-01-09T17:09:20.285Z,-2.20
2023-01-09T17:11:49.579Z,-2.20
2023-01-09T17:14:16.494Z,-2.10
2023-01-09T17:16:47.525Z,-2.30
2023-01-09T17:19:21.056Z,-2.30
2023-01-09T17:21:48.141Z,-2.20
2023-01-09T17:24:35.232Z,-2.20
2023-01-09T17:27:29.875Z,-2.20
2023-01-09T17:30:00.781Z,-2.20
2023-01-09T17:32:31.746Z,-2.30
2023-01-09T17:34:59.504Z,-2.30
2023-01-09T17:37:35.540Z,-2.30
2023-01-09T17:40:16.579Z,-2.30
2023-01-09T17:42:48.593Z,-2.30
2023-01-09T17:45:19.692Z,-2.30
2023-01-09T17:47:49.198Z,-2.30
2023-01-09T17:50:21.014Z,-2.30
2023-01-09T17:52:51.421Z,-2.30
2023-01-09T17:55:18.795Z,-2.30
2023-01-09T17:57:48.733Z,-2.30
2023-01-09T18:00:28.115Z,-2.30
2023-01-09T18:02:58.719Z,-2.30
2023-01-09T18:05:28.515Z,-2.40
2023-01-09T18:07:56.344Z,-2.30
2023-01-09T18:10:27.349Z,-2.40
2023-01-09T18:12:56.602Z,-2.20
2023-01-09T18:15:25.381Z,-2.40
2023-01-09T18:17:57.315Z,-2.40
2023-01-09T18:20:26.859Z,-2.30
2023-01-09T18:23:03.021Z,-2.40
2023-01-09T18:25:33.512Z,-2.30
2023-01-09T18:28:00.971Z,-2.30
2023-01-09T18:30:28.379Z,-2.30
2023-01-09T18:32:58.357Z,-2.40
2023-01-09T18:35:28.284Z,-2.40
2023-01-09T18:37:55.911Z,-2.30
2023-01-09T18:40:27.427Z,-2.30
2023-01-09T18:42:56.267Z,-2.30
2023-01-09T18:45:25.840Z,-2.30
2023-01-09T18:47:56.096Z,-2.30
2023-01-09T18:50:23.453Z,-2.30
2023-01-09T18:52:51.431Z,-2.30
2023-01-09T18:55:22.214Z,-2.30
2023-01-09T18:57:50.985Z,-2.30
2023-01-09T19:00:21.309Z,-2.40
2023-01-09T19:02:51.589Z,-2.40
2023-01-09T19:05:19.090Z,-2.40
2023-01-09T19:07:46.767Z,-2.40
2023-01-09T19:10:22.623Z,-2.30
2023-01-09T19:12:52.773Z,-2.40
2023-01-09T19:15:25.467Z,-2.40
2023-01-09T19:17:53.910Z,-2.40
2023-01-09T19:20:24.491Z,-2.40
2023-01-09T19:23:00.427Z,-2.40
2023-01-09T19:25:27.960Z,-2.40
2023-01-09T19:28:07.695Z,-2.50
2023-01-09T19:30:37.836Z,-2.50
2023-01-09T19:33:31.560Z,-2.50
2023-01-09T19:36:00.711Z,-2.50
2023-01-09T19:38:32.261Z,-2.50
2023-01-09T19:41:09.561Z,-2.50
2023-01-09T19:43:41.009Z,-2.50
2023-01-09T19:46:16.146Z,-2.50
2023-01-09T19:48:49.045Z,-2.50
2023-01-09T19:51:33.869Z,-2.50
2023-01-09T19:56:42.952Z,-2.60
2023-01-09T19:59:11.952Z,-2.60
2023-01-09T20:01:42.090Z,-2.60
2023-01-09T20:04:16.075Z,-2.60
2023-01-09T20:06:56.127Z,-2.60
2023-01-09T20:09:30.544Z,-2.60
2023-01-09T20:11:58.135Z,-2.60
2023-01-09T20:14:25.580Z,-2.60
2023-01-09T20:16:54.493Z,-2.70
2023-01-09T20:19:22.801Z,-2.70
2023-01-09T20:22:00.542Z,-2.70
2023-01-09T20:24:28.557Z,-2.70
2023-01-09T20:26:55.787Z,-2.70
2023-01-09T20:29:25.955Z,-2.70
2023-01-09T20:31:56.304Z,-2.70
2023-01-09T20:34:23.648Z,-2.70
2023-01-09T20:36:56.386Z,-2.70
2023-01-09T20:39:23.938Z,-2.80
2023-01-09T20:41:51.245Z,-2.70
2023-01-09T20:44:19.240Z,-2.70
2023-01-09T20:46:55.030Z,-2.70
2023-01-09T20:49:24.773Z,-2.70
2023-01-09T20:51:55.780Z,-2.80
2023-01-09T20:54:26.238Z,-2.70
2023-01-09T20:56:53.895Z,-2.70
2023-01-09T20:59:22.601Z,-2.70
2023-01-09T21:01:52.204Z,-2.70
2023-01-09T21:04:19.502Z,-2.70
2023-01-09T21:06:48.914Z,-2.70
2023-01-09T21:09:16.944Z,-2.70
2023-01-09T21:11:45.083Z,-2.70
2023-01-09T21:14:12.121Z,-2.70
2023-01-09T21:16:39.138Z,-2.70
2023-01-09T21:19:06.246Z,-2.70
2023-01-09T21:21:33.337Z,-2.70
2023-01-09T21:24:00.986Z,-2.70
2023-01-09T21:26:30.628Z,-2.70
2023-01-09T21:29:00.475Z,-2.70
2023-01-09T21:31:34.761Z,-2.70
2023-01-09T21:34:07.546Z,-2.70
2023-01-09T21:36:36.143Z,-2.70
2023-01-09T21:39:06.867Z,-2.80
2023-01-09T21:41:53.648Z,-2.70
2023-01-09T21:44:40.026Z,-2.90
2023-01-09T21:47:07.010Z,-2.90
2023-01-09T21:49:36.061Z,-2.90
2023-01-09T21:52:06.907Z,-2.90
2023-01-09T21:54:33.741Z,-3.00
2023-01-09T21:57:01.694Z,-2.90
2023-01-09T21:59:32.248Z,-3.00
2023-01-09T22:02:00.107Z,-2.90
2023-01-09T22:04:28.627Z,-2.90
2023-01-09T22:06:59.333Z,-2.90
2023-01-09T22:09:26.368Z,-3.00
2023-01-09T22:11:53.322Z,-3.00
2023-01-09T22:14:20.820Z,-3.00
2023-01-09T22:16:48.357Z,-3.00
2023-01-09T22:19:19.933Z,-3.00
2023-01-09T22:21:49.599Z,-3.00
2023-01-09T22:24:21.743Z,-3.00
2023-01-09T22:26:49.000Z,-3.00
2023-01-09T22:29:17.472Z,-3.00
2023-01-09T22:31:44.537Z,-2.90
2023-01-09T22:34:16.507Z,-3.00
2023-01-09T22:36:47.629Z,-3.00
2023-01-09T22:39:18.367Z,-3.10
2023-01-09T22:41:49.739Z,-3.10
2023-01-09T22:44:16.616Z,-3.00
2023-01-09T22:46:43.642Z,-3.00
2023-01-09T22:49:12.340Z,-3.00
2023-01-09T22:51:39.213Z,-3.10
2023-01-09T22:54:06.297Z,-3.10
2023-01-09T22:56:33.380Z,-3.10
2023-01-09T22:59:01.179Z,-3.10
2023-01-09T23:01:28.645Z,-3.00
2023-01-09T23:03:56.834Z,-3.10
2023-01-09T23:06:25.361Z,-3.00
2023-01-09T23:08:53.257Z,-3.10
2023-01-09T23:11:44.151Z,-3.10
2023-01-09T23:14:11.108Z,-3.00
2023-01-09T23:16:38.278Z,-3.10
2023-01-09T23:19:09.946Z,-3.10
2023-01-09T23:21:37.315Z,-3.00
2023-01-09T23:24:07.258Z,-3.00
2023-01-09T23:26:35.350Z,-3.00
2023-01-09T23:29:02.596Z,-3.00
2023-01-09T23:31:29.516Z,-3.00
2023-01-09T23:33:56.481Z,-3.00
2023-01-09T23:36:25.934Z,-3.00
2023-01-09T23:38:57.008Z,-3.00
2023-01-09T23:41:43.852Z,-3.00
2023-01-09T23:44:11.406Z,-3.00
2023-01-09T23:46:38.358Z,-3.00
2023-01-09T23:49:05.412Z,-3.00
2023-01-09T23:51:32.413Z,-3.00
2023-01-09T23:53:59.292Z,-3.00
2023-01-09T23:56:26.193Z,-3.00
2023-01-09T23:58:53.269Z,-3.00
